CPA552 OMDB-VHHH
Flight info
| Callsign | CPA552 |
|---|---|
| Flight time | N/A |
| Altitude | 37000 |
| Route | IVURO M677 LALDO B505 NADSO B524 ALPOR M504 TELEM A791 CEA B465 CTG A599 LSO/N0472F390 A599 LINSO/K0874S1190 A599 POU R473 SIERA |
| Aircraft | A346/H-SDE2E3FGHIJ3J4J5M1RWXY/LB1D1 |
Departure
| Time | 2026-05-08 09:05 |
|---|---|
| Airport | Dubai International Airport (OMDB) |
Arrival
| Time | N/A |
|---|---|
| Airport | Hong Kong International Airport (VHHH) |
| Time | Latitude | Longitude | Altitude | Speed | Heading |
|---|---|---|---|---|---|
| 2026-05-08 08:39 | 25.24410 | 55.37306 | 30 ft | 0 kts | 210° |
| 2026-05-08 08:52 | 25.24423 | 55.37314 | 29 ft | 0 kts | 210° |
| 2026-05-08 08:52 | 25.24446 | 55.37328 | 28 ft | 0 kts | 210° |
| 2026-05-08 08:53 | 25.24469 | 55.37343 | 27 ft | 0 kts | 209° |
| 2026-05-08 08:53 | 25.24474 | 55.37345 | 27 ft | 0 kts | 205° |
| 2026-05-08 08:54 | 25.24477 | 55.37347 | 29 ft | 1 kts | 176° |
| 2026-05-08 08:54 | 25.24481 | 55.37346 | 29 ft | 1 kts | 149° |
| 2026-05-08 08:55 | 25.24483 | 55.37344 | 29 ft | 0 kts | 133° |
| 2026-05-08 08:58 | 25.24483 | 55.37345 | 29 ft | 1 kts | 133° |
| 2026-05-08 08:58 | 25.24473 | 55.37356 | 30 ft | 3 kts | 130° |
| 2026-05-08 08:58 | 25.24454 | 55.37385 | 30 ft | 6 kts | 123° |
| 2026-05-08 08:59 | 25.24437 | 55.37416 | 30 ft | 5 kts | 121° |
| 2026-05-08 08:59 | 25.24413 | 55.37461 | 30 ft | 8 kts | 122° |
| 2026-05-08 08:59 | 25.24379 | 55.37521 | 30 ft | 10 kts | 122° |
| 2026-05-08 08:59 | 25.24336 | 55.37596 | 30 ft | 10 kts | 122° |
| 2026-05-08 09:00 | 25.24303 | 55.37656 | 30 ft | 10 kts | 121° |
| 2026-05-08 09:00 | 25.24289 | 55.37682 | 30 ft | 4 kts | 121° |
| 2026-05-08 09:00 | 25.24284 | 55.37691 | 30 ft | 2 kts | 121° |
| 2026-05-08 09:00 | 25.24271 | 55.37722 | 30 ft | 8 kts | 107° |
| 2026-05-08 09:01 | 25.24291 | 55.37781 | 30 ft | 10 kts | 43° |
| 2026-05-08 09:01 | 25.24352 | 55.37832 | 30 ft | 12 kts | 36° |
| 2026-05-08 09:01 | 25.24426 | 55.37889 | 30 ft | 14 kts | 34° |
| 2026-05-08 09:01 | 25.24492 | 55.37939 | 30 ft | 11 kts | 34° |
| 2026-05-08 09:02 | 25.24541 | 55.37975 | 30 ft | 7 kts | 34° |
| 2026-05-08 09:02 | 25.24587 | 55.38009 | 41 ft | 5 kts | 33° |
| 2026-05-08 09:02 | 25.24595 | 55.38015 | 41 ft | 4 kts | 33° |
| 2026-05-08 09:02 | 25.24627 | 55.38038 | 30 ft | 7 kts | 33° |
| 2026-05-08 09:03 | 25.24664 | 55.38064 | 30 ft | 7 kts | 31° |
| 2026-05-08 09:03 | 25.24706 | 55.38091 | 30 ft | 8 kts | 31° |
| 2026-05-08 09:03 | 25.24757 | 55.38096 | 30 ft | 9 kts | 315° |
| 2026-05-08 09:03 | 25.24770 | 55.38077 | 30 ft | 0 kts | 304° |
| 2026-05-08 09:04 | 25.24774 | 55.38071 | 30 ft | 2 kts | 304° |
| 2026-05-08 09:04 | 25.24840 | 55.37954 | 30 ft | 44 kts | 300° |
| 2026-05-08 09:04 | 25.25102 | 55.37487 | 30 ft | 98 kts | 302° |
| 2026-05-08 09:05 | 25.25541 | 55.36702 | 31 ft | 144 kts | 302° |
| 2026-05-08 09:05 | 25.26143 | 55.35627 | 48 ft | 181 kts | 300° |
| 2026-05-08 09:05 | 25.26820 | 55.34411 | 423 ft | 188 kts | 301° |
| 2026-05-08 09:05 | 25.27501 | 55.33155 | 930 ft | 192 kts | 299° |
| 2026-05-08 09:06 | 25.28200 | 55.31892 | 1486 ft | 192 kts | 297° |
| 2026-05-08 09:06 | 25.28900 | 55.30624 | 1888 ft | 196 kts | 303° |
| 2026-05-08 09:06 | 25.29974 | 55.29641 | 2034 ft | 211 kts | 335° |
| 2026-05-08 09:06 | 25.31469 | 55.29415 | 2219 ft | 225 kts | 357° |
| 2026-05-08 09:07 | 25.33069 | 55.29467 | 2438 ft | 236 kts | 358° |
| 2026-05-08 09:07 | 25.34716 | 55.29532 | 2661 ft | 244 kts | 358° |
| 2026-05-08 09:07 | 25.36404 | 55.29588 | 3102 ft | 241 kts | 358° |
| 2026-05-08 09:07 | 25.38071 | 55.29635 | 3637 ft | 239 kts | 358° |
| 2026-05-08 09:08 | 25.39706 | 55.29951 | 3896 ft | 244 kts | 24° |
| 2026-05-08 09:08 | 25.41055 | 55.31196 | 3994 ft | 267 kts | 48° |
| 2026-05-08 09:08 | 25.42245 | 55.32861 | 4010 ft | 280 kts | 50° |
| 2026-05-08 09:08 | 25.43463 | 55.34604 | 4003 ft | 282 kts | 49° |
| 2026-05-08 09:09 | 25.44689 | 55.36325 | 4068 ft | 288 kts | 49° |
| 2026-05-08 09:09 | 25.45932 | 55.38043 | 4641 ft | 288 kts | 49° |
| 2026-05-08 09:09 | 25.47182 | 55.39759 | 5307 ft | 285 kts | 49° |
| 2026-05-08 09:09 | 25.48431 | 55.41467 | 5904 ft | 286 kts | 49° |
| 2026-05-08 09:10 | 25.49672 | 55.43215 | 6482 ft | 287 kts | 50° |
| 2026-05-08 09:10 | 25.50892 | 55.44973 | 7011 ft | 289 kts | 51° |
| 2026-05-08 09:10 | 25.52119 | 55.46750 | 7531 ft | 292 kts | 54° |
| 2026-05-08 09:10 | 25.52975 | 55.48790 | 7999 ft | 296 kts | 81° |
| 2026-05-08 09:11 | 25.52905 | 55.51047 | 8538 ft | 295 kts | 108° |
| 2026-05-08 09:11 | 25.52018 | 55.53050 | 9096 ft | 294 kts | 123° |
| 2026-05-08 09:11 | 25.50900 | 55.54952 | 9682 ft | 294 kts | 124° |
| 2026-05-08 09:11 | 25.49781 | 55.56855 | 10212 ft | 295 kts | 124° |
| 2026-05-08 09:12 | 25.48650 | 55.58796 | 10539 ft | 306 kts | 124° |
| 2026-05-08 09:12 | 25.47473 | 55.60845 | 10787 ft | 320 kts | 124° |
| 2026-05-08 09:12 | 25.46256 | 55.62972 | 11022 ft | 334 kts | 124° |
| 2026-05-08 09:12 | 25.44988 | 55.65190 | 11260 ft | 347 kts | 123° |
| 2026-05-08 09:13 | 25.43706 | 55.67540 | 11497 ft | 362 kts | 119° |
| 2026-05-08 09:13 | 25.42642 | 55.70123 | 11723 ft | 376 kts | 112° |
| 2026-05-08 09:13 | 25.41860 | 55.72934 | 12073 ft | 386 kts | 105° |
| 2026-05-08 09:13 | 25.41243 | 55.75790 | 12653 ft | 388 kts | 105° |
| 2026-05-08 09:14 | 25.40637 | 55.78707 | 13295 ft | 389 kts | 105° |
| 2026-05-08 09:14 | 25.40024 | 55.81633 | 13877 ft | 391 kts | 105° |
| 2026-05-08 09:14 | 25.39399 | 55.84575 | 14371 ft | 394 kts | 105° |
| 2026-05-08 09:14 | 25.38765 | 55.87542 | 14885 ft | 398 kts | 105° |
| 2026-05-08 09:15 | 25.38124 | 55.90535 | 15420 ft | 400 kts | 105° |